createdAt,value
2023-01-21T00:01:15.478Z,6.20
2023-01-21T00:03:42.858Z,6.10
2023-01-21T00:06:15.046Z,7.30
2023-01-21T00:08:42.095Z,5.30
2023-01-21T00:11:17.196Z,4.70
2023-01-21T00:13:44.997Z,6.00
2023-01-21T00:16:12.834Z,5.10
2023-01-21T00:18:40.272Z,4.00
2023-01-21T00:21:07.285Z,8.20
2023-01-21T00:23:34.366Z,6.10
2023-01-21T00:26:02.879Z,5.60
2023-01-21T00:28:32.749Z,5.70
2023-01-21T00:31:01.771Z,5.70
2023-01-21T00:33:29.972Z,4.80
2023-01-21T00:36:02.944Z,4.60
2023-01-21T00:38:30.350Z,4.40
2023-01-21T00:41:06.216Z,5.60
2023-01-21T00:43:33.938Z,4.50
2023-01-21T00:46:00.929Z,5.10
2023-01-21T00:48:29.056Z,5.80
2023-01-21T00:51:08.814Z,4.70
2023-01-21T00:53:38.412Z,5.10
2023-01-21T00:56:14.593Z,4.30
2023-01-21T00:58:43.796Z,6.10
2023-01-21T01:01:20.136Z,4.40
2023-01-21T01:03:48.741Z,4.30
2023-01-21T01:06:18.870Z,5.40
2023-01-21T01:08:46.355Z,6.30
2023-01-21T01:11:15.005Z,7.00
2023-01-21T01:13:42.154Z,5.60
2023-01-21T01:16:10.899Z,7.80
2023-01-21T01:18:38.623Z,6.80
2023-01-21T01:21:09.842Z,4.70
2023-01-21T01:23:36.939Z,6.90
2023-01-21T01:26:07.268Z,4.30
2023-01-21T01:28:35.234Z,5.30
2023-01-21T01:31:06.185Z,4.10
2023-01-21T01:33:33.833Z,4.30
2023-01-21T01:36:12.377Z,3.10
2023-01-21T01:38:39.333Z,5.00
2023-01-21T01:41:06.799Z,4.20
2023-01-21T01:43:57.504Z,3.60
2023-01-21T01:46:27.357Z,4.80
2023-01-21T01:49:04.555Z,4.00
2023-01-21T01:52:03.608Z,5.30
2023-01-21T01:54:35.157Z,5.70
2023-01-21T01:57:07.145Z,4.80
2023-01-21T01:59:34.504Z,3.80
2023-01-21T02:02:07.012Z,4.50
2023-01-21T02:04:42.681Z,5.10
2023-01-21T02:07:09.848Z,4.30
2023-01-21T02:09:38.136Z,3.30
2023-01-21T02:12:08.055Z,4.20
2023-01-21T02:14:43.058Z,4.00
2023-01-21T02:17:35.174Z,4.80
2023-01-21T02:20:43.785Z,5.10
2023-01-21T02:23:22.544Z,3.90
2023-01-21T02:26:18.123Z,4.10
2023-01-21T02:28:44.975Z,4.10
2023-01-21T02:31:50.297Z,3.90
2023-01-21T02:34:36.680Z,2.60
2023-01-21T02:37:45.008Z,4.10
2023-01-21T02:40:20.496Z,3.50
2023-01-21T02:42:55.628Z,4.50
2023-01-21T02:45:34.005Z,3.80
2023-01-21T02:48:08.648Z,5.90
2023-01-21T02:50:53.308Z,4.00
2023-01-21T02:53:29.381Z,5.70
2023-01-21T02:56:01.589Z,4.70
2023-01-21T02:58:34.140Z,3.10
2023-01-21T03:01:32.852Z,6.00
2023-01-21T03:04:27.768Z,4.20
2023-01-21T03:07:34.305Z,4.30
2023-01-21T03:10:19.172Z,3.30
2023-01-21T03:13:07.245Z,5.70
2023-01-21T03:15:58.491Z,5.60
2023-01-21T03:18:40.069Z,3.80
2023-01-21T03:21:15.890Z,3.30
2023-01-21T03:23:47.991Z,3.60
2023-01-21T03:26:20.504Z,5.80
2023-01-21T03:28:52.833Z,3.40
2023-01-21T03:31:26.001Z,4.90
2023-01-21T03:33:57.046Z,4.70
2023-01-21T03:36:33.814Z,3.80
2023-01-21T03:39:10.319Z,2.60
2023-01-21T03:41:39.888Z,4.20
2023-01-21T03:44:07.133Z,3.50
2023-01-21T03:46:56.324Z,4.20
2023-01-21T03:49:46.465Z,5.00
2023-01-21T03:52:14.163Z,5.40
2023-01-21T03:54:41.452Z,3.80
2023-01-21T03:57:08.394Z,3.40
2023-01-21T03:59:35.329Z,3.30
2023-01-21T04:02:02.406Z,3.90
2023-01-21T04:04:29.342Z,4.50
2023-01-21T04:06:56.241Z,5.20
2023-01-21T04:09:23.164Z,3.30
2023-01-21T04:11:50.368Z,5.80
2023-01-21T04:14:17.433Z,3.90
2023-01-21T04:16:44.425Z,2.40
2023-01-21T04:19:11.442Z,3.90
2023-01-21T04:21:38.385Z,3.80
2023-01-21T04:24:06.056Z,3.40
2023-01-21T04:26:32.945Z,3.50
2023-01-21T04:29:00.044Z,3.30
2023-01-21T04:31:27.137Z,4.30
2023-01-21T04:33:54.139Z,3.00
2023-01-21T04:36:21.483Z,2.60
2023-01-21T04:38:48.476Z,5.70
2023-01-21T04:41:15.477Z,3.50
2023-01-21T04:43:42.632Z,3.40
2023-01-21T04:46:09.705Z,4.50
2023-01-21T04:48:37.436Z,3.90
2023-01-21T04:51:06.560Z,4.10
2023-01-21T04:53:33.632Z,3.80
2023-01-21T04:56:00.628Z,3.90
2023-01-21T04:58:27.776Z,4.70
2023-01-21T05:00:56.588Z,3.20
2023-01-21T05:03:23.955Z,3.70
2023-01-21T05:05:50.967Z,2.80
2023-01-21T05:08:18.026Z,3.90
2023-01-21T05:10:45.070Z,3.70
2023-01-21T05:13:11.937Z,2.20
2023-01-21T05:15:39.446Z,4.40
2023-01-21T05:18:06.609Z,4.40
2023-01-21T05:20:34.077Z,2.70
2023-01-21T05:23:01.147Z,3.70
2023-01-21T05:25:28.138Z,3.60
2023-01-21T05:27:55.725Z,2.70
2023-01-21T05:30:22.757Z,3.00
2023-01-21T05:32:54.025Z,2.40
2023-01-21T05:35:22.335Z,3.00
2023-01-21T05:37:49.700Z,4.20
2023-01-21T05:40:17.766Z,2.90
2023-01-21T05:42:44.880Z,3.70
2023-01-21T05:45:12.190Z,2.80
2023-01-21T05:47:39.155Z,3.40
2023-01-21T05:50:07.769Z,2.60
2023-01-21T05:52:34.659Z,3.70
2023-01-21T05:55:03.011Z,2.40
2023-01-21T05:57:31.346Z,4.00
2023-01-21T05:59:59.109Z,2.80
2023-01-21T06:02:26.136Z,3.60
2023-01-21T06:04:53.130Z,3.30
2023-01-21T06:07:21.607Z,1.80
2023-01-21T06:09:48.762Z,3.60
2023-01-21T06:12:15.693Z,5.30
2023-01-21T06:14:42.639Z,3.20
2023-01-21T06:17:09.649Z,3.00
2023-01-21T06:19:36.622Z,4.70
2023-01-21T06:22:03.591Z,2.70
2023-01-21T06:24:30.556Z,2.60
2023-01-21T06:26:57.480Z,2.40
2023-01-21T06:29:24.484Z,3.60
2023-01-21T06:31:51.474Z,3.50
2023-01-21T06:34:18.615Z,2.60
2023-01-21T06:36:45.501Z,3.40
2023-01-21T06:39:12.517Z,3.00
2023-01-21T06:41:39.499Z,3.50
2023-01-21T06:44:06.844Z,2.50
2023-01-21T06:46:33.861Z,3.40
2023-01-21T06:49:00.894Z,3.70
2023-01-21T06:51:28.088Z,2.90
2023-01-21T06:53:55.127Z,3.90
2023-01-21T06:56:22.729Z,4.50
2023-01-21T06:58:49.732Z,4.00
2023-01-21T07:01:16.714Z,4.40
2023-01-21T07:03:44.481Z,2.90
2023-01-21T07:06:11.732Z,2.70
2023-01-21T07:08:38.895Z,3.60
2023-01-21T07:11:05.971Z,4.00
2023-01-21T07:13:33.018Z,4.10
2023-01-21T07:16:01.297Z,3.50
2023-01-21T07:18:28.401Z,3.20
2023-01-21T07:20:56.243Z,4.50
2023-01-21T07:23:23.520Z,3.20
2023-01-21T07:25:50.500Z,5.20
2023-01-21T07:28:17.494Z,4.00
2023-01-21T07:30:44.663Z,1.70
2023-01-21T07:33:11.691Z,4.00
2023-01-21T07:35:38.989Z,5.40
2023-01-21T07:38:05.907Z,4.50
2023-01-21T07:40:32.930Z,4.80
2023-01-21T07:42:59.876Z,5.00
2023-01-21T07:45:27.078Z,5.10
2023-01-21T07:47:54.107Z,3.90
2023-01-21T07:50:21.076Z,2.70
2023-01-21T07:52:48.107Z,2.60
2023-01-21T07:55:16.628Z,2.60
2023-01-21T07:57:44.854Z,2.40
2023-01-21T08:00:12.838Z,1.90
2023-01-21T08:02:40.779Z,3.70
2023-01-21T08:05:08.664Z,4.30
2023-01-21T08:07:35.912Z,4.40
2023-01-21T08:10:03.064Z,4.30
2023-01-21T08:12:29.975Z,4.60
2023-01-21T08:14:56.945Z,3.40
2023-01-21T08:17:25.411Z,3.10
2023-01-21T08:19:53.132Z,5.10
2023-01-21T08:22:20.133Z,4.00
2023-01-21T08:24:47.086Z,4.20
2023-01-21T08:27:14.135Z,3.70
2023-01-21T08:29:41.078Z,3.20
2023-01-21T08:32:08.124Z,3.20
2023-01-21T08:34:35.699Z,3.20
2023-01-21T08:37:02.865Z,3.30
2023-01-21T08:39:29.879Z,4.80
2023-01-21T08:41:56.823Z,3.50
2023-01-21T08:44:24.277Z,5.70
2023-01-21T08:46:51.841Z,6.40
2023-01-21T08:49:18.892Z,7.60
2023-01-21T08:51:46.139Z,3.40
2023-01-21T08:54:13.284Z,5.10
2023-01-21T08:56:40.241Z,4.40
2023-01-21T08:59:07.599Z,3.90
2023-01-21T09:01:36.362Z,2.70
2023-01-21T09:04:03.428Z,3.00
2023-01-21T09:06:30.485Z,6.10
2023-01-21T09:08:59.169Z,4.00
2023-01-21T09:11:29.196Z,2.90
2023-01-21T09:14:02.909Z,4.20
2023-01-21T09:16:32.088Z,3.20
2023-01-21T09:19:00.489Z,3.10
2023-01-21T09:21:27.910Z,2.50
2023-01-21T09:23:55.102Z,4.40
2023-01-21T09:26:24.081Z,4.20
2023-01-21T09:29:00.017Z,7.50
2023-01-21T09:31:29.409Z,4.70
2023-01-21T09:33:59.729Z,4.30
2023-01-21T09:36:29.957Z,5.80
2023-01-21T09:38:57.628Z,3.30
2023-01-21T09:41:46.328Z,5.30
2023-01-21T09:44:27.415Z,5.50
2023-01-21T09:47:12.931Z,3.80
2023-01-21T09:49:44.484Z,3.30
2023-01-21T09:52:40.694Z,5.90
2023-01-21T09:55:20.367Z,4.90
2023-01-21T09:58:25.968Z,7.80
2023-01-21T10:01:04.546Z,4.00
2023-01-21T10:03:55.500Z,3.90
2023-01-21T10:06:22.489Z,3.60
2023-01-21T10:09:17.335Z,3.40
2023-01-21T10:12:19.143Z,10.40
2023-01-21T10:15:04.510Z,6.30
2023-01-21T10:17:47.880Z,2.80
2023-01-21T10:20:27.075Z,8.80
2023-01-21T10:23:18.165Z,2.40
2023-01-21T10:25:50.558Z,4.50
2023-01-21T10:28:27.133Z,6.40
2023-01-21T10:31:04.845Z,6.30
2023-01-21T10:33:33.933Z,5.60
2023-01-21T10:36:12.642Z,2.90
2023-01-21T10:38:43.081Z,3.00
2023-01-21T10:41:31.624Z,3.90
2023-01-21T10:44:04.089Z,2.60
2023-01-21T10:46:57.562Z,3.30
2023-01-21T10:49:57.955Z,5.60
2023-01-21T10:53:12.780Z,3.10
2023-01-21T10:55:42.845Z,5.20
2023-01-21T10:58:15.247Z,3.00
2023-01-21T11:00:47.788Z,4.90
2023-01-21T11:03:46.124Z,4.10
2023-01-21T11:06:15.628Z,4.70
2023-01-21T11:08:47.081Z,2.30
2023-01-21T11:11:18.801Z,2.10
2023-01-21T11:13:45.721Z,2.20
2023-01-21T11:16:12.731Z,2.50
2023-01-21T11:18:42.500Z,1.50
2023-01-21T11:21:21.190Z,2.10
2023-01-21T11:23:57.404Z,4.00
2023-01-21T11:26:29.917Z,3.90
2023-01-21T11:29:14.502Z,2.90
2023-01-21T11:31:48.745Z,3.40
2023-01-21T11:34:19.226Z,2.70
2023-01-21T11:37:01.229Z,1.90
2023-01-21T11:39:31.598Z,3.70
2023-01-21T11:42:06.506Z,3.00
2023-01-21T11:44:34.109Z,2.10
2023-01-21T11:47:01.368Z,2.10
2023-01-21T11:49:48.153Z,1.20
2023-01-21T11:52:18.968Z,2.30
2023-01-21T11:54:46.865Z,2.10
2023-01-21T11:57:28.023Z,2.00
2023-01-21T11:59:59.385Z,2.90
2023-01-21T12:02:34.197Z,1.40
2023-01-21T12:05:09.357Z,2.10
2023-01-21T12:07:39.921Z,1.70
2023-01-21T12:10:12.945Z,2.70
2023-01-21T12:12:49.130Z,1.90
2023-01-21T12:15:28.154Z,2.30
2023-01-21T12:18:01.349Z,3.00
2023-01-21T12:20:50.789Z,2.80
2023-01-21T12:23:36.321Z,2.00
2023-01-21T12:26:18.441Z,2.50
2023-01-21T12:29:07.760Z,1.40
2023-01-21T12:31:43.088Z,2.60
2023-01-21T12:34:23.343Z,3.90
2023-01-21T12:36:59.519Z,2.20
2023-01-21T12:39:35.152Z,2.00
2023-01-21T12:42:19.701Z,3.00
2023-01-21T12:44:54.939Z,3.50
2023-01-21T12:47:32.607Z,1.60
2023-01-21T12:50:23.546Z,1.60
2023-01-21T12:53:13.532Z,0.90
2023-01-21T12:56:02.010Z,1.10
2023-01-21T12:58:37.454Z,1.90
2023-01-21T13:01:14.321Z,1.80
2023-01-21T13:04:18.354Z,5.20
2023-01-21T13:07:12.945Z,3.00
2023-01-21T13:09:52.780Z,1.80
2023-01-21T13:12:23.834Z,2.50
2023-01-21T13:15:19.752Z,2.70
2023-01-21T13:17:55.810Z,2.50
2023-01-21T13:20:23.987Z,3.00
2023-01-21T13:23:06.184Z,1.50
2023-01-21T13:25:53.315Z,2.80
2023-01-21T13:28:42.781Z,3.00
2023-01-21T13:31:13.366Z,2.10
2023-01-21T13:34:24.916Z,2.50
2023-01-21T13:37:15.074Z,2.60
2023-01-21T13:40:11.228Z,4.00
2023-01-21T13:43:01.088Z,3.20
2023-01-21T13:45:36.984Z,3.90
2023-01-21T13:48:29.754Z,3.80
2023-01-21T13:51:18.423Z,5.30
2023-01-21T13:54:04.055Z,8.70
2023-01-21T13:56:30.981Z,2.00
2023-01-21T13:59:06.732Z,4.70
2023-01-21T14:01:51.112Z,4.10
2023-01-21T14:04:41.380Z,6.20
2023-01-21T14:07:10.777Z,14.50
2023-01-21T14:09:54.730Z,29.90
2023-01-21T14:12:49.737Z,107.70
2023-01-21T14:15:22.710Z,171.80
2023-01-21T14:17:58.295Z,234.70
2023-01-21T14:20:44.009Z,234.30
2023-01-21T14:23:21.442Z,238.80
2023-01-21T14:26:00.450Z,256.90
2023-01-21T14:28:27.416Z,264.50
2023-01-21T14:31:03.855Z,255.90
2023-01-21T14:34:19.978Z,267.50
2023-01-21T14:37:06.796Z,250.60
2023-01-21T14:40:02.122Z,256.20
2023-01-21T14:42:51.886Z,243.00
2023-01-21T14:45:22.506Z,241.90
2023-01-21T14:47:55.002Z,232.60
2023-01-21T14:50:53.175Z,232.50
2023-01-21T14:53:24.275Z,219.40
2023-01-21T14:56:16.135Z,220.20
2023-01-21T14:58:49.267Z,218.40
2023-01-21T15:01:44.022Z,217.40
2023-01-21T15:04:26.934Z,206.90
2023-01-21T15:06:58.176Z,198.80
2023-01-21T15:09:32.844Z,192.30
2023-01-21T15:12:03.653Z,189.00
2023-01-21T15:14:37.087Z,179.70
2023-01-21T15:17:08.359Z,178.20
2023-01-21T15:19:36.357Z,174.30
2023-01-21T15:22:39.245Z,173.00
2023-01-21T15:25:15.643Z,161.50
2023-01-21T15:28:21.439Z,161.20
2023-01-21T15:31:00.141Z,154.00
2023-01-21T15:33:30.268Z,151.90
2023-01-21T15:36:00.306Z,147.00
2023-01-21T15:38:28.394Z,144.80
2023-01-21T15:41:01.627Z,144.40
2023-01-21T15:43:49.988Z,133.50
2023-01-21T15:46:17.070Z,134.20
2023-01-21T15:49:02.171Z,130.50
2023-01-21T15:51:54.083Z,124.70
2023-01-21T15:54:42.541Z,127.10
2023-01-21T15:57:39.316Z,126.60
2023-01-21T16:00:28.153Z,123.00
2023-01-21T16:03:32.787Z,119.30
2023-01-21T16:06:02.595Z,111.80
2023-01-21T16:08:50.459Z,111.50
2023-01-21T16:11:30.881Z,111.10
2023-01-21T16:14:36.631Z,102.60
2023-01-21T16:17:30.418Z,102.00
2023-01-21T16:20:01.897Z,100.10
2023-01-21T16:22:33.362Z,95.40
2023-01-21T16:25:04.735Z,94.30
2023-01-21T16:27:32.602Z,98.70
2023-01-21T16:30:12.168Z,89.10
2023-01-21T16:32:39.405Z,89.70
2023-01-21T16:35:06.889Z,84.80
2023-01-21T16:37:35.193Z,85.90
2023-01-21T16:40:30.391Z,78.40
2023-01-21T16:43:17.997Z,83.60
2023-01-21T16:45:54.521Z,79.20
2023-01-21T16:48:25.573Z,77.30
2023-01-21T16:50:53.772Z,72.90
2023-01-21T16:53:25.111Z,72.30
2023-01-21T16:55:58.825Z,70.90
2023-01-21T16:58:33.023Z,68.10
2023-01-21T17:01:01.616Z,62.10
2023-01-21T17:03:29.390Z,62.90
2023-01-21T17:06:02.739Z,64.60
2023-01-21T17:08:31.208Z,60.50
2023-01-21T17:11:06.644Z,60.40
2023-01-21T17:13:36.918Z,58.10
2023-01-21T17:16:05.928Z,60.50
2023-01-21T17:18:38.675Z,54.30
2023-01-21T17:21:11.492Z,59.90
2023-01-21T17:23:51.990Z,60.90
2023-01-21T17:26:26.288Z,52.40
2023-01-21T17:29:03.432Z,52.00
2023-01-21T17:31:35.579Z,51.90
2023-01-21T17:34:09.789Z,50.60
2023-01-21T17:36:41.922Z,49.90
2023-01-21T17:39:12.390Z,46.70
2023-01-21T17:41:41.711Z,46.40
2023-01-21T17:44:22.398Z,46.40
2023-01-21T17:46:52.617Z,43.20
2023-01-21T17:49:25.767Z,43.20
2023-01-21T17:51:54.730Z,41.20
2023-01-21T17:54:26.084Z,40.50
2023-01-21T17:56:56.055Z,40.50
2023-01-21T17:59:34.574Z,38.50
2023-01-21T18:02:03.595Z,40.80
2023-01-21T18:04:32.352Z,32.80
2023-01-21T18:06:59.555Z,35.40
2023-01-21T18:09:28.449Z,34.60
2023-01-21T18:11:58.303Z,33.40
2023-01-21T18:14:26.840Z,33.00
2023-01-21T18:16:54.509Z,33.90
2023-01-21T18:19:27.929Z,31.60
2023-01-21T18:21:55.944Z,30.40
2023-01-21T18:24:24.755Z,32.40
2023-01-21T18:26:52.588Z,27.60
2023-01-21T18:29:21.966Z,30.70
2023-01-21T18:31:52.267Z,28.80
2023-01-21T18:34:19.488Z,28.40
2023-01-21T18:36:46.615Z,30.20
2023-01-21T18:39:16.727Z,26.00
2023-01-21T18:41:44.476Z,29.20
2023-01-21T18:44:11.642Z,26.90
2023-01-21T18:46:43.679Z,25.20
2023-01-21T18:49:20.891Z,26.20
2023-01-21T18:51:48.228Z,25.70
2023-01-21T18:54:16.552Z,27.00
2023-01-21T18:56:44.418Z,26.40
2023-01-21T18:59:17.747Z,23.40
2023-01-21T19:01:45.422Z,25.40
2023-01-21T19:04:18.515Z,24.40
2023-01-21T19:06:50.688Z,25.40
2023-01-21T19:09:24.389Z,23.20
2023-01-21T19:11:51.892Z,24.10
2023-01-21T19:14:19.204Z,24.30
2023-01-21T19:16:46.853Z,20.80
2023-01-21T19:19:19.353Z,25.30
2023-01-21T19:21:46.887Z,24.40
2023-01-21T19:24:14.147Z,20.90
2023-01-21T19:26:41.253Z,23.10
2023-01-21T19:29:15.612Z,21.30
2023-01-21T19:31:42.954Z,20.40
2023-01-21T19:34:10.720Z,18.90
2023-01-21T19:36:39.468Z,21.10
2023-01-21T19:39:18.322Z,16.80
2023-01-21T19:41:45.676Z,17.60
2023-01-21T19:44:12.667Z,17.70
2023-01-21T19:46:39.949Z,18.80
2023-01-21T19:49:15.859Z,17.50
2023-01-21T19:51:44.390Z,17.20
2023-01-21T19:54:11.410Z,15.70
2023-01-21T19:56:38.556Z,16.40
2023-01-21T19:59:05.694Z,17.60
2023-01-21T20:01:32.747Z,17.60
2023-01-21T20:04:01.001Z,17.40
2023-01-21T20:06:33.520Z,17.20
2023-01-21T20:09:00.831Z,18.60
2023-01-21T20:11:27.921Z,16.60
2023-01-21T20:13:54.946Z,15.70
2023-01-21T20:16:24.168Z,16.70
2023-01-21T20:18:51.888Z,16.00
2023-01-21T20:21:18.873Z,18.10
2023-01-21T20:23:46.345Z,17.60
2023-01-21T20:26:21.430Z,18.70
2023-01-21T20:28:51.959Z,15.10
2023-01-21T20:31:19.364Z,16.10
2023-01-21T20:33:48.498Z,16.70
2023-01-21T20:36:27.343Z,17.80
2023-01-21T20:38:55.500Z,15.40
2023-01-21T20:41:22.890Z,14.40
2023-01-21T20:43:51.863Z,13.90
2023-01-21T20:46:27.403Z,14.10
2023-01-21T20:48:55.568Z,12.80
2023-01-21T20:51:22.891Z,15.20
2023-01-21T20:53:50.867Z,11.90
2023-01-21T20:56:20.796Z,14.70
2023-01-21T20:58:51.137Z,12.20
2023-01-21T21:01:21.970Z,12.40
2023-01-21T21:03:50.029Z,12.80
2023-01-21T21:06:20.472Z,14.20
2023-01-21T21:08:49.257Z,12.80
2023-01-21T21:11:18.117Z,12.50
2023-01-21T21:13:48.582Z,13.50
2023-01-21T21:16:23.748Z,11.90
2023-01-21T21:18:51.249Z,11.70
2023-01-21T21:21:21.096Z,14.00
2023-01-21T21:23:50.795Z,12.40
2023-01-21T21:26:27.406Z,14.40
2023-01-21T21:28:55.103Z,12.50
2023-01-21T21:31:23.894Z,13.10
2023-01-21T21:33:53.951Z,11.90
2023-01-21T21:36:28.067Z,10.50
2023-01-21T21:38:57.951Z,13.80
2023-01-21T21:41:44.456Z,11.70
2023-01-21T21:44:13.183Z,10.40
2023-01-21T21:46:59.327Z,8.80
2023-01-21T21:49:26.941Z,11.50
2023-01-21T21:51:54.368Z,11.10
2023-01-21T21:54:21.564Z,10.70
2023-01-21T21:56:48.558Z,10.70
2023-01-21T21:59:15.709Z,10.70
2023-01-21T22:01:44.120Z,12.50
2023-01-21T22:04:11.857Z,11.10
2023-01-21T22:06:39.270Z,12.50
2023-01-21T22:09:09.219Z,10.80
2023-01-21T22:11:36.352Z,11.00
2023-01-21T22:14:04.544Z,11.30
2023-01-21T22:16:32.908Z,9.30
2023-01-21T22:19:00.533Z,10.60
2023-01-21T22:21:30.154Z,9.30
2023-01-21T22:23:57.096Z,10.60
2023-01-21T22:26:26.340Z,10.30
2023-01-21T22:28:54.369Z,9.30
2023-01-21T22:31:27.412Z,9.90
2023-01-21T22:33:54.932Z,10.10
2023-01-21T22:36:24.972Z,10.60
2023-01-21T22:38:52.493Z,10.00
2023-01-21T22:41:22.460Z,11.00
2023-01-21T22:43:51.293Z,9.10
2023-01-21T22:46:24.419Z,10.20
2023-01-21T22:48:53.422Z,11.60
2023-01-21T22:51:21.591Z,8.30
2023-01-21T22:53:50.190Z,10.10
2023-01-21T22:56:19.952Z,9.50
2023-01-21T22:58:47.840Z,9.40
2023-01-21T23:01:27.210Z,8.80
2023-01-21T23:03:54.785Z,10.80
2023-01-21T23:06:22.087Z,8.50
2023-01-21T23:08:50.057Z,8.90
2023-01-21T23:11:18.942Z,9.80
2023-01-21T23:13:47.019Z,8.00
2023-01-21T23:16:17.028Z,7.40
2023-01-21T23:18:44.013Z,9.60
2023-01-21T23:21:15.143Z,8.70
2023-01-21T23:23:42.067Z,9.50
2023-01-21T23:26:11.674Z,8.30
2023-01-21T23:28:39.627Z,8.70
2023-01-21T23:31:14.337Z,7.70
2023-01-21T23:33:41.845Z,6.80
2023-01-21T23:36:13.113Z,11.00
2023-01-21T23:38:40.718Z,9.20
2023-01-21T23:41:09.491Z,7.20
2023-01-21T23:43:37.233Z,7.40
2023-01-21T23:46:09.640Z,9.60
2023-01-21T23:48:38.092Z,7.70
2023-01-21T23:51:10.757Z,8.80
2023-01-21T23:53:37.769Z,8.10
2023-01-21T23:56:15.253Z,7.50
2023-01-21T23:58:42.399Z,7.20
